METAR Formatted Surface Weather Observation
Issued by NWS

Home | Current Version | Previous Version | Text Only | Print | Product List | Glossary On
Versions: 1 2 3 4 5 6 7 8 9 10 11 12 13 14 15 16 17 18 19 20 21 22
000
SAUS41 KAKQ 171754
MTRNUI
METAR KNUI 171753Z AUTO 16005KT 9SM BKN011 OVC100 09/07 A3008 RMK
AO2 RAE00 SLP186 P0000 60002 T00940072 10094 20056 58043



USA.gov is the U.S. government's official web portal to all federal, state and local government web resources and services.